createdAt,value
2018-08-28T00:02:00.974Z,2.83
2018-08-28T00:04:31.554Z,3.00
2018-08-28T00:07:05.764Z,2.73
2018-08-28T00:09:36.619Z,3.10
2018-08-28T00:12:07.616Z,3.30
2018-08-28T00:14:41.167Z,2.60
2018-08-28T00:17:15.254Z,2.90
2018-08-28T00:19:45.742Z,3.20
2018-08-28T00:22:16.179Z,2.90
2018-08-28T00:24:46.686Z,2.90
2018-08-28T00:27:17.232Z,3.07
2018-08-28T00:29:47.767Z,3.07
2018-08-28T00:32:21.866Z,3.03
2018-08-28T00:34:52.289Z,3.10
2018-08-28T00:37:22.778Z,2.90
2018-08-28T00:39:53.191Z,3.03
2018-08-28T00:42:23.466Z,3.27
2018-08-28T00:44:53.883Z,2.87
2018-08-28T00:47:30.196Z,2.90
2018-08-28T00:50:01.247Z,2.50
2018-08-28T00:52:32.117Z,2.73
2018-08-28T00:55:02.338Z,3.23
2018-08-28T00:57:32.812Z,2.97
2018-08-28T01:00:03.375Z,2.90
2018-08-28T01:02:33.787Z,2.90
2018-08-28T01:05:04.592Z,2.40
2018-08-28T01:07:34.993Z,2.70
2018-08-28T01:10:05.826Z,2.90
2018-08-28T01:12:41.103Z,2.83
2018-08-28T01:15:11.395Z,3.40
2018-08-28T01:17:41.861Z,2.80
2018-08-28T01:20:12.220Z,2.50
2018-08-28T01:22:42.715Z,3.03
2018-08-28T01:25:13.086Z,3.10
2018-08-28T01:27:43.413Z,3.30
2018-08-28T01:30:13.931Z,2.60
2018-08-28T01:32:46.287Z,2.67
2018-08-28T01:35:16.587Z,2.90
2018-08-28T01:37:46.817Z,2.77
2018-08-28T01:40:17.057Z,2.70
2018-08-28T01:42:47.418Z,2.87
2018-08-28T01:45:17.838Z,3.10
2018-08-28T01:47:49.274Z,2.60
2018-08-28T01:50:19.683Z,3.03
2018-08-28T01:52:50.200Z,2.80
2018-08-28T01:55:20.533Z,2.93
2018-08-28T01:57:50.799Z,3.17
2018-08-28T02:00:21.282Z,3.00
2018-08-28T02:02:51.903Z,2.47
2018-08-28T02:05:22.180Z,3.00
2018-08-28T02:07:59.730Z,2.57
2018-08-28T02:10:30.361Z,2.90
2018-08-28T02:13:00.428Z,2.80
2018-08-28T02:15:32.030Z,3.00
2018-08-28T02:18:02.482Z,3.00
2018-08-28T02:20:33.146Z,2.77
2018-08-28T02:23:03.731Z,2.90
2018-08-28T02:25:34.178Z,3.07
2018-08-28T02:28:04.603Z,2.63
2018-08-28T02:30:35.109Z,2.90
2018-08-28T02:33:07.315Z,3.10
2018-08-28T02:35:37.827Z,2.60
2018-08-28T02:38:08.030Z,3.33
2018-08-28T02:40:38.424Z,3.10
2018-08-28T02:43:13.371Z,2.90
2018-08-28T02:45:45.407Z,3.13
2018-08-28T02:48:16.152Z,2.43
2018-08-28T02:50:46.558Z,2.93
2018-08-28T02:53:16.980Z,2.70
2018-08-28T02:55:47.231Z,2.30
2018-08-28T02:58:17.499Z,2.70
2018-08-28T03:00:47.481Z,2.77
2018-08-28T03:03:17.570Z,2.93
2018-08-28T03:06:13.202Z,2.77
2018-08-28T03:08:43.529Z,3.10
2018-08-28T03:11:14.539Z,2.87
2018-08-28T03:13:44.474Z,2.70
2018-08-28T03:16:18.653Z,2.70
2018-08-28T03:18:48.578Z,2.90
2018-08-28T03:21:18.561Z,3.43
2018-08-28T03:23:48.645Z,4.70
2018-08-28T03:26:20.190Z,2.73
2018-08-28T03:28:53.471Z,3.00
2018-08-28T03:31:24.402Z,2.50
2018-08-28T03:33:54.537Z,2.60
2018-08-28T03:36:25.255Z,2.40
2018-08-28T03:38:55.694Z,2.43
2018-08-28T03:41:27.083Z,2.23
2018-08-28T03:43:58.028Z,2.73
2018-08-28T03:46:28.701Z,2.27
2018-08-28T03:48:59.056Z,2.73
2018-08-28T03:51:29.355Z,2.47
2018-08-28T03:54:00.946Z,3.30
2018-08-28T03:56:31.373Z,3.07
2018-08-28T03:59:01.675Z,2.70
2018-08-28T04:01:39.811Z,2.83
2018-08-28T04:04:27.970Z,2.67
2018-08-28T04:07:07.868Z,2.60
2018-08-28T04:09:38.531Z,3.00
2018-08-28T04:12:22.715Z,2.30
2018-08-28T04:14:53.227Z,2.70
2018-08-28T04:17:24.228Z,2.63
2018-08-28T04:19:54.964Z,2.70
2018-08-28T04:22:25.448Z,3.27
2018-08-28T04:24:55.728Z,2.80
2018-08-28T04:27:26.307Z,2.40
2018-08-28T04:29:56.842Z,2.40
2018-08-28T04:32:27.890Z,2.37
2018-08-28T04:34:58.834Z,2.80
2018-08-28T04:37:29.688Z,3.03
2018-08-28T04:40:01.246Z,2.60
2018-08-28T04:42:32.474Z,3.93
2018-08-28T04:45:02.979Z,8.37
2018-08-28T04:47:33.934Z,11.73
2018-08-28T04:50:04.595Z,3.23
2018-08-28T04:52:35.938Z,3.60
2018-08-28T04:55:06.787Z,2.87
2018-08-28T04:57:37.597Z,2.93
2018-08-28T05:00:09.032Z,5.87
2018-08-28T05:02:40.590Z,7.63
2018-08-28T05:05:11.523Z,5.47
2018-08-28T05:07:42.065Z,3.23
2018-08-28T05:10:13.008Z,2.80
2018-08-28T05:12:44.015Z,2.73
2018-08-28T05:15:15.008Z,2.50
2018-08-28T05:17:46.052Z,2.43
2018-08-28T05:20:17.043Z,2.67
2018-08-28T05:22:47.662Z,2.63
2018-08-28T05:25:18.130Z,3.03
2018-08-28T05:27:49.609Z,2.73
2018-08-28T05:30:20.543Z,2.60
2018-08-28T05:32:56.471Z,2.70
2018-08-28T05:35:27.202Z,2.63
2018-08-28T05:37:58.139Z,2.90
2018-08-28T05:40:28.747Z,2.63
2018-08-28T05:42:59.558Z,2.70
2018-08-28T05:45:30.280Z,2.50
2018-08-28T05:48:01.517Z,2.57
2018-08-28T05:50:32.602Z,2.83
2018-08-28T05:53:02.970Z,2.70
2018-08-28T05:55:33.358Z,2.60
2018-08-28T05:58:03.867Z,2.63
2018-08-28T06:00:34.324Z,2.73
2018-08-28T06:03:05.030Z,2.63
2018-08-28T06:05:35.485Z,3.30
2018-08-28T06:08:06.221Z,2.90
2018-08-28T06:10:36.482Z,2.83
2018-08-28T06:13:06.869Z,3.00
2018-08-28T06:15:37.353Z,3.13
2018-08-28T06:18:07.735Z,2.50
2018-08-28T06:20:38.078Z,2.50
2018-08-28T06:23:08.816Z,2.60
2018-08-28T06:25:39.694Z,3.13
2018-08-28T06:28:10.779Z,2.60
2018-08-28T06:30:41.707Z,2.30
2018-08-28T06:33:12.459Z,2.70
2018-08-28T06:35:43.266Z,2.30
2018-08-28T06:38:14.289Z,2.83
2018-08-28T06:40:45.068Z,2.90
2018-08-28T06:43:16.122Z,2.37
2018-08-28T06:45:47.963Z,2.50
2018-08-28T06:48:18.526Z,2.53
2018-08-28T06:50:49.479Z,2.80
2018-08-28T06:53:20.943Z,3.27
2018-08-28T06:55:51.889Z,2.77
2018-08-28T06:58:22.900Z,2.83
2018-08-28T07:00:54.078Z,2.50
2018-08-28T07:03:25.097Z,2.98
2018-08-28T07:05:55.867Z,2.67
2018-08-28T07:08:26.878Z,2.87
2018-08-28T07:10:57.939Z,2.60
2018-08-28T07:13:28.559Z,2.33
2018-08-28T07:15:59.491Z,2.33
2018-08-28T07:18:30.506Z,2.72
2018-08-28T07:21:01.269Z,2.62
2018-08-28T07:23:32.151Z,2.50
2018-08-28T07:26:03.084Z,2.40
2018-08-28T07:28:33.708Z,2.60
2018-08-28T07:31:04.396Z,2.20
2018-08-28T07:33:35.278Z,2.40
2018-08-28T07:36:06.084Z,2.10
2018-08-28T07:38:36.733Z,2.17
2018-08-28T07:41:07.801Z,2.00
2018-08-28T07:43:38.715Z,2.00
2018-08-28T07:46:09.464Z,2.37
2018-08-28T07:48:40.295Z,2.47
2018-08-28T07:51:11.171Z,1.92
2018-08-28T07:53:41.906Z,2.30
2018-08-28T07:56:12.791Z,2.30
2018-08-28T07:58:47.689Z,2.50
2018-08-28T08:01:18.537Z,2.20
2018-08-28T08:03:49.824Z,2.33
2018-08-28T08:06:20.488Z,2.30
2018-08-28T08:08:51.402Z,2.08
2018-08-28T08:11:22.258Z,2.17
2018-08-28T08:13:53.338Z,2.25
2018-08-28T08:16:24.284Z,2.30
2018-08-28T08:18:54.923Z,2.17
2018-08-28T08:21:26.023Z,2.02
2018-08-28T08:23:57.010Z,2.50
2018-08-28T08:26:28.003Z,2.20
2018-08-28T08:28:58.943Z,2.08
2018-08-28T08:31:29.605Z,1.90
2018-08-28T08:34:00.612Z,2.20
2018-08-28T08:36:31.650Z,2.00
2018-08-28T08:39:02.936Z,2.20
2018-08-28T08:41:33.621Z,2.42
2018-08-28T08:44:04.380Z,2.27
2018-08-28T08:46:35.449Z,2.52
2018-08-28T08:49:06.145Z,2.45
2018-08-28T08:51:37.099Z,2.33
2018-08-28T08:54:08.087Z,1.95
2018-08-28T08:56:38.820Z,2.55
2018-08-28T08:59:09.826Z,2.87
2018-08-28T09:01:40.687Z,2.35
2018-08-28T09:04:11.165Z,2.00
2018-08-28T09:06:41.854Z,2.83
2018-08-28T09:09:12.831Z,2.42
2018-08-28T09:11:43.774Z,2.62
2018-08-28T09:14:15.159Z,2.67
2018-08-28T09:16:45.903Z,3.72
2018-08-28T09:19:17.203Z,2.20
2018-08-28T09:21:48.736Z,2.35
2018-08-28T09:24:19.535Z,2.50
2018-08-28T09:26:50.673Z,2.55
2018-08-28T09:29:21.629Z,2.52
2018-08-28T09:31:52.639Z,2.60
2018-08-28T09:34:23.279Z,2.33
2018-08-28T09:36:54.224Z,2.22
2018-08-28T09:39:24.871Z,2.30
2018-08-28T09:41:55.713Z,2.47
2018-08-28T09:44:26.299Z,2.40
2018-08-28T09:46:57.316Z,2.22
2018-08-28T09:49:27.984Z,2.72
2018-08-28T09:51:58.955Z,2.08
2018-08-28T09:54:30.228Z,2.22
2018-08-28T09:57:00.910Z,2.30
2018-08-28T09:59:31.796Z,2.02
2018-08-28T10:02:02.825Z,2.02
2018-08-28T10:04:33.547Z,2.25
2018-08-28T10:07:04.467Z,2.30
2018-08-28T10:09:35.446Z,2.25
2018-08-28T10:12:06.484Z,2.40
2018-08-28T10:14:37.119Z,2.10
2018-08-28T10:17:08.018Z,2.40
2018-08-28T10:19:38.562Z,2.35
2018-08-28T10:22:09.408Z,2.15
2018-08-28T10:24:39.995Z,2.45
2018-08-28T10:27:10.554Z,2.37
2018-08-28T10:29:42.202Z,2.30
2018-08-28T10:32:19.424Z,2.55
2018-08-28T10:34:50.546Z,2.60
2018-08-28T10:37:21.236Z,2.83
2018-08-28T10:39:52.089Z,2.87
2018-08-28T10:42:22.996Z,2.77
2018-08-28T10:44:54.600Z,2.60
2018-08-28T10:47:25.135Z,2.40
2018-08-28T10:49:55.973Z,2.45
2018-08-28T10:52:27.244Z,2.62
2018-08-28T10:54:57.638Z,2.30
2018-08-28T10:57:28.541Z,2.15
2018-08-28T10:59:59.217Z,2.27
2018-08-28T11:02:29.714Z,2.40
2018-08-28T11:05:00.310Z,2.10
2018-08-28T11:07:31.255Z,2.60
2018-08-28T11:10:01.795Z,2.72
2018-08-28T11:12:32.700Z,2.30
2018-08-28T11:15:03.755Z,2.10
2018-08-28T11:17:34.234Z,2.27
2018-08-28T11:20:04.773Z,2.40
2018-08-28T11:22:35.267Z,2.00
2018-08-28T11:25:07.200Z,2.17
2018-08-28T11:27:38.196Z,2.50
2018-08-28T11:30:09.258Z,2.27
2018-08-28T11:32:40.334Z,2.35
2018-08-28T11:35:10.955Z,2.05
2018-08-28T11:37:41.902Z,2.12
2018-08-28T11:40:13.220Z,2.30
2018-08-28T11:42:44.354Z,2.17
2018-08-28T11:45:15.530Z,2.02
2018-08-28T11:47:46.971Z,2.30
2018-08-28T11:50:17.602Z,2.20
2018-08-28T11:52:48.645Z,2.42
2018-08-28T11:55:23.550Z,2.22
2018-08-28T11:57:54.911Z,2.40
2018-08-28T12:00:26.050Z,2.00
2018-08-28T12:02:57.379Z,1.95
2018-08-28T12:05:28.091Z,2.10
2018-08-28T12:07:58.576Z,2.00
2018-08-28T12:10:29.439Z,1.90
2018-08-28T12:13:00.046Z,1.90
2018-08-28T12:15:30.675Z,2.08
2018-08-28T12:18:02.602Z,1.92
2018-08-28T12:20:33.580Z,2.20
2018-08-28T12:23:04.141Z,2.00
2018-08-28T12:25:34.694Z,2.15
2018-08-28T12:28:05.463Z,1.62
2018-08-28T12:30:36.113Z,2.05
2018-08-28T12:33:06.481Z,1.90
2018-08-28T12:35:36.649Z,1.85
2018-08-28T12:38:07.146Z,2.30
2018-08-28T12:40:37.601Z,2.15
2018-08-28T12:43:08.566Z,2.05
2018-08-28T12:45:39.178Z,2.22
2018-08-28T12:48:09.537Z,2.10
2018-08-28T12:50:40.190Z,2.27
2018-08-28T12:53:10.809Z,2.15
2018-08-28T12:55:47.193Z,1.77
2018-08-28T12:58:17.802Z,2.15
2018-08-28T13:00:47.817Z,1.70
2018-08-28T13:03:18.237Z,1.90
2018-08-28T13:05:54.669Z,1.70
2018-08-28T13:08:25.269Z,2.12
2018-08-28T13:10:55.759Z,1.70
2018-08-28T13:13:26.386Z,2.30
2018-08-28T13:15:57.224Z,2.05
2018-08-28T13:18:27.954Z,2.20
2018-08-28T13:20:58.755Z,2.05
2018-08-28T13:23:29.448Z,1.70
2018-08-28T13:26:00.075Z,1.92
2018-08-28T13:28:30.818Z,2.05
2018-08-28T13:31:01.759Z,2.17
2018-08-28T13:33:32.459Z,2.30
2018-08-28T13:36:03.447Z,2.02
2018-08-28T13:38:34.106Z,2.22
2018-08-28T13:41:04.473Z,2.20
2018-08-28T13:43:35.843Z,1.77
2018-08-28T13:46:06.570Z,2.30
2018-08-28T13:48:37.619Z,1.95
2018-08-28T13:51:15.509Z,2.27
2018-08-28T13:53:46.955Z,2.05
2018-08-28T13:56:17.527Z,2.20
2018-08-28T13:58:47.561Z,2.40
2018-08-28T14:01:18.900Z,1.95
2018-08-28T14:03:49.161Z,2.33
2018-08-28T14:06:20.106Z,2.22
2018-08-28T14:08:51.581Z,2.22
2018-08-28T14:11:22.121Z,2.60
2018-08-28T14:13:52.209Z,2.50
2018-08-28T14:16:22.621Z,2.58
2018-08-28T14:18:53.109Z,2.22
2018-08-28T14:21:23.646Z,3.05
2018-08-28T14:24:02.258Z,3.02
2018-08-28T14:26:33.037Z,2.65
2018-08-28T14:29:03.386Z,2.60
2018-08-28T14:31:33.636Z,3.00
2018-08-28T14:34:04.315Z,2.60
2018-08-28T14:36:34.768Z,3.37
2018-08-28T14:39:06.361Z,4.12
2018-08-28T14:41:36.461Z,4.12
2018-08-28T14:44:08.830Z,5.22
2018-08-28T14:46:39.277Z,5.47
2018-08-28T14:49:09.878Z,5.40
2018-08-28T14:51:40.285Z,8.83
2018-08-28T14:54:10.857Z,10.18
2018-08-28T14:56:41.897Z,8.78
2018-08-28T14:59:13.509Z,9.90
2018-08-28T15:01:44.243Z,9.60
2018-08-28T15:04:15.299Z,9.20
2018-08-28T15:06:46.363Z,8.55
2018-08-28T15:09:16.933Z,9.25
2018-08-28T15:11:49.425Z,8.75
2018-08-28T15:14:21.623Z,8.73
2018-08-28T15:16:53.513Z,8.73
2018-08-28T15:19:23.974Z,10.15
2018-08-28T15:21:54.486Z,9.90
2018-08-28T15:24:25.372Z,10.30
2018-08-28T15:26:55.694Z,10.43
2018-08-28T15:29:28.493Z,10.15
2018-08-28T15:31:59.066Z,9.33
2018-08-28T15:34:29.594Z,8.73
2018-08-28T15:37:00.050Z,8.43
2018-08-28T15:39:30.701Z,8.68
2018-08-28T15:42:01.095Z,8.28
2018-08-28T15:44:31.665Z,8.38
2018-08-28T15:47:03.117Z,8.80
2018-08-28T15:49:33.626Z,7.60
2018-08-28T15:52:15.573Z,8.85
2018-08-28T15:54:46.513Z,8.93
2018-08-28T15:57:17.174Z,10.15
2018-08-28T15:59:47.701Z,9.60
2018-08-28T16:02:19.218Z,9.00
2018-08-28T16:04:49.920Z,8.35
2018-08-28T16:07:20.593Z,9.65
2018-08-28T16:09:51.934Z,8.40
2018-08-28T16:12:29.706Z,9.80
2018-08-28T16:15:06.270Z,9.73
2018-08-28T16:17:37.835Z,10.63
2018-08-28T16:20:08.644Z,10.23
2018-08-28T16:22:42.950Z,9.25
2018-08-28T16:25:13.800Z,9.75
2018-08-28T16:27:44.369Z,9.80
2018-08-28T16:30:14.852Z,10.00
2018-08-28T16:32:45.769Z,10.08
2018-08-28T16:35:16.355Z,10.13
2018-08-28T16:37:47.085Z,10.55
2018-08-28T16:40:17.782Z,10.48
2018-08-28T16:42:48.469Z,9.68
2018-08-28T16:45:19.524Z,9.65
2018-08-28T16:51:02.859Z,10.70
2018-08-28T16:53:33.815Z,10.18
2018-08-28T16:56:06.031Z,9.95
2018-08-28T16:58:36.870Z,10.00
2018-08-28T17:01:08.003Z,11.08
2018-08-28T17:03:38.936Z,10.13
2018-08-28T17:06:19.539Z,10.28
2018-08-28T17:08:50.531Z,10.60
2018-08-28T17:11:21.677Z,10.45
2018-08-28T17:13:52.641Z,11.03
2018-08-28T17:16:23.926Z,10.35
2018-08-28T17:18:54.657Z,11.35
2018-08-28T17:21:25.513Z,11.18
2018-08-28T17:23:56.279Z,11.70
2018-08-28T17:26:27.507Z,11.30
2018-08-28T17:28:58.228Z,11.40
2018-08-28T17:31:29.005Z,12.10
2018-08-28T17:33:59.979Z,10.70
2018-08-28T17:36:31.119Z,11.20
2018-08-28T17:39:01.811Z,11.80
2018-08-28T17:41:32.755Z,11.67
2018-08-28T17:44:03.803Z,11.03
2018-08-28T17:46:35.122Z,11.67
2018-08-28T17:49:06.273Z,12.20
2018-08-28T17:51:36.789Z,12.80
2018-08-28T17:54:08.143Z,11.87
2018-08-28T17:56:39.366Z,13.37
2018-08-28T17:59:09.794Z,13.03
2018-08-28T18:01:40.232Z,12.93
2018-08-28T18:04:10.729Z,12.70
2018-08-28T18:06:41.091Z,12.97
2018-08-28T18:09:11.496Z,12.03
2018-08-28T18:11:41.983Z,11.30
2018-08-28T18:14:12.411Z,11.00
2018-08-28T18:16:42.743Z,10.20
2018-08-28T18:19:13.110Z,10.07
2018-08-28T18:21:43.748Z,10.30
2018-08-28T18:24:14.172Z,11.00
2018-08-28T18:26:47.741Z,10.53
2018-08-28T18:29:18.235Z,9.60
2018-08-28T18:31:48.634Z,10.00
2018-08-28T18:34:19.002Z,9.23
2018-08-28T18:36:49.410Z,9.47
2018-08-28T18:39:19.783Z,9.50
2018-08-28T18:41:50.324Z,10.13
2018-08-28T18:44:20.616Z,9.27
2018-08-28T18:46:51.285Z,9.53
2018-08-28T18:49:21.570Z,10.60
2018-08-28T18:51:52.196Z,10.80
2018-08-28T18:54:22.676Z,9.93
2018-08-28T18:56:53.350Z,9.80
2018-08-28T18:59:23.887Z,9.50
2018-08-28T19:01:54.433Z,11.07
2018-08-28T19:04:24.857Z,9.43
2018-08-28T19:06:55.560Z,13.80
2018-08-28T19:09:26.100Z,10.93
2018-08-28T19:11:56.826Z,9.53
2018-08-28T19:14:28.509Z,9.23
2018-08-28T19:16:58.985Z,9.57
2018-08-28T19:19:42.049Z,8.77
2018-08-28T19:22:12.544Z,8.00
2018-08-28T19:24:43.128Z,8.70
2018-08-28T19:27:14.143Z,8.83
2018-08-28T19:29:44.905Z,8.10
2018-08-28T19:32:15.678Z,8.83
2018-08-28T19:34:46.044Z,8.83
2018-08-28T19:37:16.709Z,8.83
2018-08-28T19:39:47.234Z,9.37
2018-08-28T19:42:28.936Z,9.43
2018-08-28T19:45:00.055Z,9.30
2018-08-28T19:47:30.895Z,8.80
2018-08-28T19:50:03.067Z,8.77
2018-08-28T19:52:34.792Z,8.90
2018-08-28T19:55:05.910Z,9.60
2018-08-28T19:57:36.778Z,10.30
2018-08-28T20:00:10.111Z,9.93
2018-08-28T20:02:41.455Z,9.30
2018-08-28T20:05:14.497Z,10.77
2018-08-28T20:07:45.913Z,9.67
2018-08-28T20:10:18.058Z,8.93
2018-08-28T20:12:49.480Z,9.13
2018-08-28T20:15:21.511Z,8.80
2018-08-28T20:17:52.542Z,9.13
2018-08-28T20:20:23.121Z,9.00
2018-08-28T20:22:55.081Z,9.20
2018-08-28T20:25:27.009Z,8.93
2018-08-28T20:27:57.925Z,8.67
2018-08-28T20:30:31.962Z,8.57
2018-08-28T20:33:05.606Z,8.77
2018-08-28T20:35:39.642Z,9.10
2018-08-28T20:38:10.598Z,9.33
2018-08-28T20:40:42.099Z,9.33
2018-08-28T20:43:15.313Z,8.10
2018-08-28T20:45:47.235Z,7.90
2018-08-28T20:48:19.152Z,8.33
2018-08-28T20:51:06.103Z,8.50
2018-08-28T20:53:37.791Z,8.70
2018-08-28T20:56:09.773Z,8.20
2018-08-28T20:58:42.843Z,8.37
2018-08-28T21:01:14.744Z,7.70
2018-08-28T21:03:47.467Z,7.70
2018-08-28T21:06:24.175Z,8.10
2018-08-28T21:08:56.126Z,8.03
2018-08-28T21:11:28.189Z,8.53
2018-08-28T21:14:00.698Z,8.60
2018-08-28T21:16:31.277Z,9.53
2018-08-28T21:19:01.711Z,8.87
2018-08-28T21:21:39.189Z,8.87
2018-08-28T21:24:09.657Z,7.67
2018-08-28T21:26:42.816Z,8.10
2018-08-28T21:29:14.195Z,8.87
2018-08-28T21:31:44.779Z,7.63
2018-08-28T21:34:15.438Z,8.40
2018-08-28T21:36:47.714Z,8.27
2018-08-28T21:39:19.016Z,8.33
2018-08-28T21:41:49.588Z,7.83
2018-08-28T21:44:20.194Z,7.83
2018-08-28T21:46:51.258Z,8.80
2018-08-28T21:49:22.577Z,7.77
2018-08-28T21:51:53.239Z,8.30
2018-08-28T21:54:24.866Z,8.83
2018-08-28T21:56:57.602Z,8.93
2018-08-28T21:59:28.413Z,8.00
2018-08-28T22:01:59.611Z,8.73
2018-08-28T22:04:30.564Z,8.60
2018-08-28T22:07:06.762Z,8.13
2018-08-28T22:09:39.884Z,7.60
2018-08-28T22:12:10.275Z,7.80
2018-08-28T22:14:41.434Z,8.03
2018-08-28T22:17:13.584Z,7.77
2018-08-28T22:19:43.611Z,8.57
2018-08-28T22:22:13.956Z,6.90
2018-08-28T22:24:44.134Z,7.83
2018-08-28T22:27:14.477Z,7.93
2018-08-28T22:29:46.109Z,7.40
2018-08-28T22:32:18.738Z,8.40
2018-08-28T22:34:50.587Z,7.97
2018-08-28T22:37:21.275Z,7.50
2018-08-28T22:39:52.363Z,7.93
2018-08-28T22:42:29.832Z,8.07
2018-08-28T22:45:01.624Z,7.77
2018-08-28T22:47:32.440Z,7.97
2018-08-28T22:50:05.215Z,7.70
2018-08-28T22:52:36.064Z,6.93
2018-08-28T22:55:06.995Z,7.67
2018-08-28T22:57:38.030Z,7.37
2018-08-28T23:00:13.023Z,7.43
2018-08-28T23:02:43.965Z,7.57
2018-08-28T23:05:15.088Z,7.53
2018-08-28T23:07:45.926Z,8.07
2018-08-28T23:10:16.914Z,7.27
2018-08-28T23:12:51.426Z,7.53
2018-08-28T23:15:28.728Z,7.33
2018-08-28T23:17:59.271Z,8.83
2018-08-28T23:20:30.184Z,8.20
2018-08-28T23:23:02.991Z,8.20
2018-08-28T23:25:33.591Z,7.53
2018-08-28T23:28:03.942Z,7.63
2018-08-28T23:30:34.415Z,8.53
2018-08-28T23:33:05.412Z,8.20
2018-08-28T23:35:35.981Z,7.53
2018-08-28T23:38:06.739Z,8.20
2018-08-28T23:40:36.978Z,8.10
2018-08-28T23:43:08.639Z,7.97
2018-08-28T23:45:39.245Z,7.33
2018-08-28T23:48:10.285Z,7.30
2018-08-28T23:50:40.726Z,7.23
2018-08-28T23:53:11.424Z,6.90
2018-08-28T23:55:42.134Z,7.60
2018-08-28T23:58:13.200Z,7.87
